Latest Weather Observations for White Cliffs AWS

IDN60801

Issued at 10:32 pm EDT Friday 12 February 2016 (issued every 30 minutes, with the page automatically refreshed every 10 minutes)

About weather observations | Map of weather stations | Latest weather observations for NSW | Other Formats
Station Details ID: 046129 Name: WHITE CLIFFS AWS Lat: -30.85 Lon: 143.07 Height: 158.0 m
Data from the previous 72 hours. | See also: Recent months at White Cliffs AWS
Date/Time
EDT
Temp
°C
App
Temp
°C
Dew
Point
Rel
Hum
%
Delta-T
°C
Wind Press
QNH
hPa
Press
MSL
hPa
Rain
since 9 am
mm
Dir
 
Spd
km/h
Gust
km/h
Spd
kts
Gust
kts
12/10:30pm 33.2 30.7 4.9 17 15.1 E 7 9 4 5 1009.6 1008.6 0.0
12/10:00pm 33.9 31.4 4.6 16 15.6 ENE 7 11 4 6 1009.5 1008.5 0.0
12/09:30pm 34.5 31.7 5.0 16 15.8 E 9 11 5 6 1009.3 1008.3 0.0
12/09:00pm 35.1 32.6 4.6 15 16.4 NNE 7 7 4 4 1009.1 1008.1 0.0
12/08:30pm 36.5 33.2 4.7 14 17.2 NNE 11 13 6 7 1008.8 1007.8 0.0
12/08:00pm 37.7 34.8 4.6 13 18.0 NNW 9 15 5 8 1008.5 1007.5 0.0
12/07:30pm 38.3 35.6 3.9 12 18.5 WSW 7 11 4 6 1008.5 1007.5 0.0
12/07:00pm 38.4 36.9 5.1 13 18.3 SSW 2 9 1 5 1008.4 1007.4 0.0
12/06:30pm 38.0 35.5 4.8 13 18.1 W 7 13 4 7 1008.4 1007.4 0.0
12/06:00pm 38.4 34.6 4.0 12 18.6 WSW 13 19 7 10 1008.5 1007.5 0.0
12/05:30pm 38.2 34.0 3.8 12 18.5 W 15 28 8 15 1008.6 1007.6 0.0
12/05:00pm 38.0 35.5 4.8 13 18.1 W 7 20 4 11 1008.8 1007.8 0.0
12/04:30pm 39.6 36.0 4.9 12 19.1 W 13 20 7 11 1009.0 1008.0 0.0
12/04:00pm 39.4 35.4 4.7 12 19.1 WNW 15 26 8 14 1009.2 1008.2 0.0
12/03:30pm 38.7 35.6 5.4 13 18.4 SE 11 17 6 9 1009.6 1008.6 0.0
12/03:00pm 37.7 33.9 5.6 14 17.7 NNW 15 28 8 15 1010.0 1008.9 0.0
12/02:30pm 37.9 35.1 6.8 15 17.5 SSE 11 20 6 11 1010.5 1009.4 0.0
12/02:00pm 37.0 33.6 6.1 15 17.1 N 13 20 7 11 1011.0 1009.9 0.0
12/01:30pm 38.0 34.8 6.9 15 17.5 NNE 13 24 7 13 1011.3 1010.3 0.0
12/01:00pm 36.8 33.6 6.9 16 16.7 N 13 24 7 13 1011.6 1010.6 0.0
12/12:30pm 36.2 33.9 7.3 17 16.2 WNW 9 17 5 9 1012.0 1011.0 0.0
12/12:00pm 36.3 33.6 7.4 17 16.3 NNW 11 19 6 10 1012.3 1011.3 0.0
12/11:30am 35.0 32.0 7.9 19 15.3 N 13 20 7 11 1012.7 1011.7 0.0
12/11:00am 33.8 32.5 9.1 22 14.1 ENE 6 11 3 6 1013.0 1012.0 0.0
12/10:30am 32.8 29.7 8.9 23 13.5 E 15 20 8 11 1013.1 1012.1 0.0
12/10:00am 33.3 29.6 9.4 23 13.7 NE 19 26 10 14 1013.2 1012.2 0.0
12/09:30am 31.6 28.6 9.2 25 12.7 N 15 22 8 12 1013.0 1012.0 0.0
12/09:00am 29.5 27.2 9.1 28 11.4 N 11 17 6 9 1012.9 1011.9 0.0
12/08:30am 27.7 26.3 9.0 31 10.3 WSW 6 7 3 4 1012.7 1011.7 0.0
12/08:00am 25.9 23.5 8.8 34 9.3 SSW 11 13 6 7 1012.4 1011.4 0.0
12/07:30am 24.1 21.9 7.7 35 8.7 W 9 11 5 6 1011.9 1010.9 0.0
12/07:00am 25.8 24.4 8.8 34 9.3 N 6 7 3 4 1011.4 1010.4 0.0
12/06:30am 25.6 24.5 8.6 34 9.2 NNE 4 7 2 4 1010.9 1009.8 0.0
12/06:00am 26.1 24.6 9.0 34 9.4 NE 7 9 4 5 1010.7 1009.6 0.0
12/05:30am 25.6 24.0 8.6 34 9.2 NE 7 11 4 6 1010.5 1009.4 0.0
12/05:00am 26.9 24.7 9.3 33 9.8 NE 11 17 6 9 1010.4 1009.3 0.0
12/04:30am 26.1 23.8 9.0 34 9.4 E 11 15 6 8 1010.3 1009.2 0.0
12/04:00am 26.9 24.3 9.3 33 9.8 ENE 13 17 7 9 1010.4 1009.3 0.0
12/03:30am 27.1 24.0 9.0 32 10.0 E 15 20 8 11 1010.5 1009.4 0.0
12/03:00am 27.6 24.6 9.4 32 10.1 ENE 15 17 8 9 1010.5 1009.4 0.0
12/02:30am 28.3 24.9 9.1 30 10.7 NE 17 22 9 12 1010.6 1009.5 0.0
12/02:00am 28.2 24.6 8.5 29 10.9 ENE 17 20 9 11 1010.9 1009.8 0.0
12/01:30am 28.2 24.6 6.9 26 11.4 ENE 15 17 8 9 1011.2 1010.2 0.0
12/01:00am 28.9 26.5 6.9 25 11.8 SE 9 15 5 8 1011.2 1010.2 0.0
12/12:30am 29.6 28.1 6.9 24 12.2 NNW 4 9 2 5 1010.7 1009.6 0.0
12/12:00am 29.7 28.1 6.4 23 12.5 WNW 4 7 2 4 1010.4 1009.3 0.0
 
Date/Time
EDT
Temp
°C
App
Temp
°C
Dew
Point
Rel
Hum
%
Delta-T
°C
Wind Press
QNH
hPa
Press
MSL
hPa
Rain
since 9 am
mm
Dir
 
Spd
km/h
Gust
km/h
Spd
kts
Gust
kts
11/11:30pm 30.7 28.2 6.6 22 13.0 NW 9 11 5 6 1010.5 1009.4 0.0
11/11:00pm 31.3 28.4 6.4 21 13.5 NW 11 11 6 6 1010.5 1009.4 0.0
11/10:30pm 32.7 30.1 6.1 19 14.4 NNW 9 13 5 7 1010.5 1009.4 0.0
11/10:00pm 33.1 30.2 6.4 19 14.6 NNW 11 15 6 8 1010.2 1009.1 0.0
11/09:30pm 33.8 31.2 6.2 18 15.1 N 9 13 5 7 1010.0 1008.9 0.0
11/09:00pm 34.8 32.0 5.3 16 16.0 NNW 9 13 5 7 1009.5 1008.5 0.0
11/08:30pm 35.4 32.2 2.8 13 17.0 ESE 9 13 5 7 1009.1 1008.1 0.0
11/08:00pm 36.2 32.7 3.4 13 17.4 ESE 11 15 6 8 1008.7 1007.7 0.0
11/07:30pm 37.3 34.7 3.1 12 18.1 NNE 6 22 3 12 1008.4 1007.4 0.0
11/07:00pm 37.1 34.8 3.0 12 18.0 NE 4 11 2 6 1008.3 1007.3 0.0
11/06:30pm 37.8 34.7 3.5 12 18.3 S 9 17 5 9 1008.3 1007.3 0.0
11/06:00pm 38.5 35.1 4.1 12 18.6 WSW 11 20 6 11 1008.2 1007.2 0.0
11/05:30pm 37.8 35.1 3.5 12 18.3 NE 7 11 4 6 1008.3 1007.3 0.0
11/05:00pm 37.7 35.1 3.4 12 18.3 SSE 6 11 3 6 1008.3 1007.3 0.0
11/04:30pm 38.0 34.5 3.7 12 18.4 E 11 17 6 9 1008.4 1007.4 0.0
11/04:00pm 37.6 32.9 3.4 12 18.2 ESE 17 26 9 14 1008.9 1007.9 0.0
11/03:30pm 37.1 34.1 4.1 13 17.7 W 9 26 5 14 1009.4 1008.4 0.0
11/03:00pm 36.8 33.4 5.9 15 17.1 NW 13 20 7 11 1010.1 1009.0 0.0
11/02:30pm 36.4 31.4 4.6 14 17.1 SW 20 28 11 15 1010.8 1009.7 0.0
11/02:00pm 36.3 29.4 4.6 14 17.1 WSW 30 41 16 22 1011.1 1010.1 0.0
11/01:39pm 36.5 31.0 5.7 15 16.9 SW 24 43 13 23 1011.2 1010.2 0.0
11/01:30pm 36.7 32.9 5.9 15 17.0 S 15 22 8 12 1011.2 1010.2 0.0
11/01:00pm 36.1 33.7 7.2 17 16.2 NE 9 19 5 10 1011.2 1010.2 0.0
11/12:30pm 34.9 32.9 7.1 18 15.5 W 7 13 4 7 1011.6 1010.6 0.0
11/12:00pm 35.3 30.7 6.6 17 15.9 WNW 20 26 11 14 1011.7 1010.7 0.0
11/11:30am 35.9 30.6 7.0 17 16.1 NW 24 30 13 16 1011.6 1010.6 0.0
11/11:00am 35.2 30.0 7.3 18 15.6 NW 24 28 13 15 1011.6 1010.6 0.0
11/10:30am 33.6 28.9 7.6 20 14.5 NNW 22 30 12 16 1011.7 1010.7 0.0
11/10:00am 33.0 27.4 7.1 20 14.3 NNW 26 32 14 17 1011.6 1010.6 0.0
11/09:30am 31.6 27.6 6.6 21 13.6 NNW 17 22 9 12 1011.6 1010.6 0.0
11/09:00am 30.7 27.4 6.6 22 13.0 N 13 17 7 9 1011.5 1010.5 0.0
11/08:30am 29.9 26.6 6.5 23 12.6 N 13 15 7 8 1011.4 1010.4 0.0
11/08:00am 28.6 25.6 6.1 24 11.9 N 11 13 6 7 1011.2 1010.2 0.0
11/07:30am 28.8 25.1 6.2 24 12.0 N 15 17 8 9 1010.9 1009.8 0.0
11/07:00am 28.4 24.7 6.5 25 11.7 N 15 19 8 10 1010.4 1009.3 0.0
11/06:30am 27.5 25.1 5.1 24 11.6 NNE 7 9 4 5 1010.0 1008.9 0.0
11/06:00am 27.1 24.5 4.2 23 11.6 ENE 7 7 4 4 1009.7 1008.7 0.0
11/05:30am 27.1 24.5 4.2 23 11.6 ENE 7 11 4 6 1009.5 1008.5 0.0
11/05:00am 28.5 24.7 4.1 21 12.5 SE 13 15 7 8 1009.4 1008.4 0.0
11/04:30am 28.7 25.3 4.2 21 12.6 SSW 11 13 6 7 1009.1 1008.1 0.0
11/04:00am 29.6 26.3 4.3 20 13.1 SSW 11 15 6 8 1009.0 1008.0 0.0
11/03:30am 27.9 25.4 3.6 21 12.3 WSW 6 17 3 9 1008.9 1007.9 0.0
11/03:00am 28.3 25.3 3.9 21 12.4 NW 9 11 5 6 1008.8 1007.8 0.0
11/02:30am 28.6 25.1 3.5 20 12.7 WNW 11 13 6 7 1009.0 1008.0 0.0
11/02:00am 31.0 27.7 4.7 19 13.8 N 11 11 6 6 1009.0 1008.0 0.0
11/01:30am 31.2 27.6 4.9 19 13.8 NNE 13 13 7 7 1009.4 1008.4 0.0
11/01:00am 31.8 28.5 4.6 18 14.3 NNE 11 13 6 7 1009.7 1008.7 0.0
11/12:30am 32.1 28.7 4.0 17 14.7 NNE 11 15 6 8 1009.9 1008.8 0.0
11/12:00am 31.7 27.9 3.7 17 14.5 NNE 13 13 7 7 1010.1 1009.0 0.0
 
Date/Time
EDT
Temp
°C
App
Temp
°C
Dew
Point
Rel
Hum
%
Delta-T
°C
Wind Press
QNH
hPa
Press
MSL
hPa
Rain
since 9 am
mm
Dir
 
Spd
km/h
Gust
km/h
Spd
kts
Gust
kts
10/11:30pm 32.1 28.1 3.1 16 14.9 NE 13 13 7 7 1010.2 1009.1 0.0
10/11:00pm 33.1 29.3 3.9 16 15.3 NNE 13 15 7 8 1010.2 1009.1 0.0
10/10:30pm 33.5 29.6 3.3 15 15.7 NE 13 15 7 8 1010.2 1009.1 0.0
10/10:00pm 33.7 30.2 3.5 15 15.8 NNE 11 13 6 7 1010.2 1009.1 0.0
10/09:30pm 34.1 30.9 2.8 14 16.2 NE 9 11 5 6 1010.0 1008.9 0.0
10/09:00pm 34.2 31.0 2.9 14 16.3 NE 9 11 5 6 1009.9 1008.8 0.0
10/08:30pm 35.4 32.2 2.8 13 17.0 ENE 9 13 5 7 1009.7 1008.7 0.0
10/08:00pm 36.4 32.7 2.5 12 17.7 E 11 15 6 8 1009.5 1008.5 0.0
10/07:30pm 36.9 32.5 2.8 12 17.9 E 15 20 8 11 1009.3 1008.3 0.0
10/07:00pm 37.9 32.7 2.4 11 18.7 ENE 19 28 10 15 1009.0 1008.0 0.0
10/06:30pm 38.1 33.8 1.2 10 19.1 WSW 13 19 7 10 1008.9 1007.9 0.0
10/06:00pm 38.6 35.8 2.9 11 19.0 SSE 7 17 4 9 1008.8 1007.8 0.0
10/05:30pm 38.5 34.9 2.8 11 18.9 SW 11 19 6 10 1009.0 1008.0 0.0
10/05:00pm 38.1 34.4 2.5 11 18.8 S 11 28 6 15 1009.2 1008.2 0.0
10/04:30pm 38.2 35.3 2.6 11 18.8 ENE 7 11 4 6 1009.4 1008.4 0.0
10/04:00pm 37.3 32.0 3.1 12 18.1 SSE 20 30 11 16 1009.9 1008.8 0.0
10/03:30pm 37.3 34.1 3.1 12 18.1 WSW 9 19 5 10 1010.1 1009.0 0.0
10/03:00pm 37.7 34.0 2.2 11 18.6 SSW 11 24 6 13 1010.8 1009.7 0.0
10/02:30pm 37.0 34.2 2.9 12 18.0 SSW 7 15 4 8 1011.3 1010.3 0.0
10/02:00pm 36.5 33.4 3.7 13 17.5 SE 9 15 5 8 1011.6 1010.6 0.0
10/01:30pm 36.2 32.3 3.4 13 17.3 NE 13 19 7 10 1012.1 1011.1 0.0
10/01:00pm 36.7 33.8 4.9 14 17.3 WNW 9 20 5 11 1012.5 1011.5 0.0
10/12:30pm 36.1 32.8 4.4 14 17.0 N 11 20 6 11 1013.0 1012.0 0.0
10/12:00pm 36.1 32.6 5.4 15 16.7 NNW 13 22 7 12 1013.3 1012.3 0.0
10/11:30am 34.3 31.1 4.9 16 15.7 NNW 11 19 6 10 1013.8 1012.8 0.0
10/11:00am 33.8 29.5 5.4 17 15.3 N 17 24 9 13 1014.0 1013.0 0.0
10/10:30am 33.6 28.3 5.2 17 15.2 N 22 30 12 16 1013.7 1012.7 0.0
10/10:00am 32.8 28.0 5.4 18 14.7 N 20 28 11 15 1013.6 1012.6 0.0
10/09:30am 30.9 26.6 5.3 20 13.5 N 17 24 9 13 1013.8 1012.8 0.0
10/09:00am 29.9 26.9 5.9 22 12.8 NNW 11 15 6 8 1013.9 1012.9 0.0
10/08:30am 28.3 25.5 5.2 23 12.0 WSW 9 11 5 6 1013.8 1012.8 0.0
10/08:00am 26.6 23.7 4.4 24 11.3 SW 9 13 5 7 1013.6 1012.6 0.0
10/07:30am 25.7 23.4 4.8 26 10.6 E 6 11 3 6 1013.2 1012.2 0.0
10/07:00am 25.8 22.9 4.9 26 10.7 ENE 9 15 5 8 1013.0 1012.0 0.0
10/06:30am 26.4 23.9 4.8 25 11.0 NNE 7 9 4 5 1012.4 1011.4 0.0
10/06:00am 26.6 23.3 4.4 24 11.3 NE 11 11 6 6 1012.0 1011.0 0.0
10/05:30am 27.1 23.7 4.2 23 11.6 NNE 11 13 6 7 1011.7 1010.7 0.0
10/05:00am 28.2 23.9 5.1 23 12.0 NNE 17 20 9 11 1011.6 1010.6 0.0
10/04:30am 28.9 24.2 5.1 22 12.4 NNE 19 26 10 14 1011.4 1010.4 0.0
10/04:00am 29.3 23.9 4.7 21 12.8 NNE 22 30 12 16 1011.1 1010.1 0.0
10/03:30am 29.6 23.9 5.0 21 12.9 NNE 24 30 13 16 1011.1 1010.1 0.0
10/03:00am 29.8 24.4 4.4 20 13.2 NE 22 28 12 15 1011.3 1010.3 0.0
10/02:30am 28.6 25.0 4.8 22 12.3 ENE 13 15 7 8 1011.5 1010.5 0.0
10/02:00am 28.1 24.6 3.7 21 12.4 ENE 11 15 6 8 1011.9 1010.9 0.0
10/01:30am 29.6 26.3 4.3 20 13.1 ENE 11 15 6 8 1012.2 1011.2 0.0
10/01:00am 29.5 25.9 4.9 21 12.8 NE 13 15 7 8 1012.4 1011.4 0.0
10/12:30am 28.9 25.1 3.7 20 12.8 NE 13 15 7 8 1012.6 1011.6 0.0
10/12:00am 30.4 27.0 1.8 16 14.2 ENE 9 11 5 6 1012.8 1011.8 0.0
 
Date/Time
EDT
Temp
°C
App
Temp
°C
Dew
Point
Rel
Hum
%
Delta-T
°C
Wind Press
QNH
hPa
Press
MSL
hPa
Rain
since 9 am
mm
Dir
 
Spd
km/h
Gust
km/h
Spd
kts
Gust
kts
09/11:30pm 30.7 27.2 1.1 15 14.6 E 9 9 5 5 1013.1 1012.1 0.0
09/11:00pm 31.0 27.4 0.4 14 14.9 E 9 11 5 6 1013.2 1012.2 0.0

Other Formats:

Comma delimited format used in spreadsheet applications
http://www.bom.gov.au/fwo/IDN60801/IDN60801.95699.axf

JavaScript Object Notation format (JSON) in row-major order
http://www.bom.gov.au/fwo/IDN60801/IDN60801.95699.json